sensor_id;sensor_type;location;lat;lon;timestamp;noise_LAeq;noise_LA_min;noise_LA_max;noise_LA01;noise_LA95
47109;Laerm;32856;51.422;6.794;2023-04-15T00:01:56;56.62;47.91;73.67;;
47109;Laerm;32856;51.422;6.794;2023-04-15T00:04:24;56.14;46.91;72.78;;
47109;Laerm;32856;51.422;6.794;2023-04-15T00:06:52;56.03;46.78;71.97;;
47109;Laerm;32856;51.422;6.794;2023-04-15T00:09:21;52.17;47.28;55.94;;
47109;Laerm;32856;51.422;6.794;2023-04-15T00:11:49;52.16;46.78;58.63;;
47109;Laerm;32856;51.422;6.794;2023-04-15T00:14:16;60.45;48.08;74.45;;
47109;Laerm;32856;51.422;6.794;2023-04-15T00:16:43;57.61;47.70;70.11;;
47109;Laerm;32856;51.422;6.794;2023-04-15T00:19:11;56.74;49.16;70.57;;
47109;Laerm;32856;51.422;6.794;2023-04-15T00:21:38;56.61;49.43;72.89;;
47109;Laerm;32856;51.422;6.794;2023-04-15T00:24:05;54.51;46.71;70.66;;
47109;Laerm;32856;51.422;6.794;2023-04-15T00:26:34;57.86;49.04;74.67;;
47109;Laerm;32856;51.422;6.794;2023-04-15T00:29:02;52.24;49.07;55.35;;
47109;Laerm;32856;51.422;6.794;2023-04-15T00:31:29;53.71;49.66;65.14;;
47109;Laerm;32856;51.422;6.794;2023-04-15T00:33:58;53.93;49.23;59.33;;
47109;Laerm;32856;51.422;6.794;2023-04-15T00:36:25;54.72;49.24;65.20;;
47109;Laerm;32856;51.422;6.794;2023-04-15T00:38:53;57.22;48.05;74.63;;
47109;Laerm;32856;51.422;6.794;2023-04-15T00:41:20;54.01;47.10;69.21;;
47109;Laerm;32856;51.422;6.794;2023-04-15T00:43:49;57.25;48.28;75.00;;
47109;Laerm;32856;51.422;6.794;2023-04-15T00:46:16;57.33;47.83;70.82;;
47109;Laerm;32856;51.422;6.794;2023-04-15T00:48:45;57.28;48.58;76.42;;
47109;Laerm;32856;51.422;6.794;2023-04-15T00:51:14;52.55;48.98;58.28;;
47109;Laerm;32856;51.422;6.794;2023-04-15T00:53:41;56.15;48.42;72.91;;
47109;Laerm;32856;51.422;6.794;2023-04-15T00:56:08;55.14;50.05;69.54;;
47109;Laerm;32856;51.422;6.794;2023-04-15T00:58:36;56.87;47.10;72.65;;
47109;Laerm;32856;51.422;6.794;2023-04-15T01:01:04;51.86;47.24;61.26;;
47109;Laerm;32856;51.422;6.794;2023-04-15T01:03:32;55.71;48.39;72.48;;
47109;Laerm;32856;51.422;6.794;2023-04-15T01:05:59;51.96;47.93;55.61;;
47109;Laerm;32856;51.422;6.794;2023-04-15T01:08:29;52.50;49.00;56.08;;
47109;Laerm;32856;51.422;6.794;2023-04-15T01:10:57;57.49;49.69;73.91;;
47109;Laerm;32856;51.422;6.794;2023-04-15T01:13:24;52.74;48.64;56.92;;
47109;Laerm;32856;51.422;6.794;2023-04-15T01:15:52;50.92;46.20;56.60;;
47109;Laerm;32856;51.422;6.794;2023-04-15T01:18:21;56.78;47.44;72.57;;
47109;Laerm;32856;51.422;6.794;2023-04-15T01:20:48;55.98;48.78;74.44;;
47109;Laerm;32856;51.422;6.794;2023-04-15T01:23:16;56.80;49.84;74.39;;
47109;Laerm;32856;51.422;6.794;2023-04-15T01:25:45;54.03;49.52;61.96;;
47109;Laerm;32856;51.422;6.794;2023-04-15T01:28:12;53.17;47.10;66.85;;
47109;Laerm;32856;51.422;6.794;2023-04-15T01:30:40;52.93;48.34;56.30;;
47109;Laerm;32856;51.422;6.794;2023-04-15T01:33:08;57.53;48.57;73.87;;
47109;Laerm;32856;51.422;6.794;2023-04-15T01:35:35;52.17;47.18;57.24;;
47109;Laerm;32856;51.422;6.794;2023-04-15T01:38:04;51.65;45.97;55.75;;
47109;Laerm;32856;51.422;6.794;2023-04-15T01:40:31;52.04;47.74;63.12;;
47109;Laerm;32856;51.422;6.794;2023-04-15T01:43:00;51.83;47.38;56.42;;
47109;Laerm;32856;51.422;6.794;2023-04-15T01:45:28;51.81;47.24;56.96;;
47109;Laerm;32856;51.422;6.794;2023-04-15T01:47:56;52.93;48.07;57.95;;
47109;Laerm;32856;51.422;6.794;2023-04-15T01:50:23;52.87;46.45;57.56;;
47109;Laerm;32856;51.422;6.794;2023-04-15T01:52:52;56.15;46.91;73.65;;
47109;Laerm;32856;51.422;6.794;2023-04-15T01:55:19;58.68;48.57;78.69;;
47109;Laerm;32856;51.422;6.794;2023-04-15T01:57:46;54.86;47.23;70.11;;
47109;Laerm;32856;51.422;6.794;2023-04-15T02:00:15;55.29;48.66;69.14;;
47109;Laerm;32856;51.422;6.794;2023-04-15T02:02:43;51.84;46.84;57.24;;
47109;Laerm;32856;51.422;6.794;2023-04-15T02:05:10;53.44;45.57;60.21;;
47109;Laerm;32856;51.422;6.794;2023-04-15T02:07:37;55.85;48.51;63.34;;
47109;Laerm;32856;51.422;6.794;2023-04-15T02:10:05;54.86;49.16;61.25;;
47109;Laerm;32856;51.422;6.794;2023-04-15T02:12:32;57.06;48.36;72.88;;
47109;Laerm;32856;51.422;6.794;2023-04-15T02:15:00;54.74;47.72;72.36;;
47109;Laerm;32856;51.422;6.794;2023-04-15T02:17:28;51.89;48.23;57.36;;
47109;Laerm;32856;51.422;6.794;2023-04-15T02:19:56;54.20;49.03;57.99;;
47109;Laerm;32856;51.422;6.794;2023-04-15T02:22:24;58.10;48.88;72.74;;
47109;Laerm;32856;51.422;6.794;2023-04-15T02:24:51;52.99;49.14;57.47;;
47109;Laerm;32856;51.422;6.794;2023-04-15T02:27:18;53.50;48.95;60.59;;
47109;Laerm;32856;51.422;6.794;2023-04-15T02:29:47;55.75;48.45;73.58;;
47109;Laerm;32856;51.422;6.794;2023-04-15T02:32:16;58.57;47.65;69.85;;
47109;Laerm;32856;51.422;6.794;2023-04-15T02:34:45;53.02;47.44;57.73;;
47109;Laerm;32856;51.422;6.794;2023-04-15T02:37:13;53.76;48.18;62.71;;
47109;Laerm;32856;51.422;6.794;2023-04-15T02:39:41;60.05;48.99;77.29;;
47109;Laerm;32856;51.422;6.794;2023-04-15T02:42:08;54.49;50.04;65.96;;
47109;Laerm;32856;51.422;6.794;2023-04-15T02:44:36;58.83;50.89;75.76;;
47109;Laerm;32856;51.422;6.794;2023-04-15T02:47:03;53.96;50.20;57.63;;
47109;Laerm;32856;51.422;6.794;2023-04-15T02:49:32;60.44;50.75;77.67;;
47109;Laerm;32856;51.422;6.794;2023-04-15T02:52:00;54.04;49.20;58.36;;
47109;Laerm;32856;51.422;6.794;2023-04-15T02:54:28;55.47;49.77;70.68;;
47109;Laerm;32856;51.422;6.794;2023-04-15T02:56:55;54.21;50.43;58.71;;
47109;Laerm;32856;51.422;6.794;2023-04-15T02:59:23;58.27;51.50;70.84;;
47109;Laerm;32856;51.422;6.794;2023-04-15T03:01:50;56.04;48.87;68.36;;
47109;Laerm;32856;51.422;6.794;2023-04-15T03:04:18;52.42;48.23;55.70;;
47109;Laerm;32856;51.422;6.794;2023-04-15T03:06:45;55.51;49.75;71.69;;
47109;Laerm;32856;51.422;6.794;2023-04-15T03:09:14;53.22;49.02;58.53;;
47109;Laerm;32856;51.422;6.794;2023-04-15T03:11:41;56.86;50.66;71.52;;
47109;Laerm;32856;51.422;6.794;2023-04-15T03:14:08;60.12;49.43;74.99;;
47109;Laerm;32856;51.422;6.794;2023-04-15T03:16:36;54.04;49.77;60.35;;
47109;Laerm;32856;51.422;6.794;2023-04-15T03:19:03;62.73;49.40;88.51;;
47109;Laerm;32856;51.422;6.794;2023-04-15T03:21:30;53.93;48.96;60.74;;
47109;Laerm;32856;51.422;6.794;2023-04-15T03:23:58;54.73;49.29;65.92;;
47109;Laerm;32856;51.422;6.794;2023-04-15T03:26:27;56.54;49.66;71.13;;
47109;Laerm;32856;51.422;6.794;2023-04-15T03:28:55;58.35;50.41;73.05;;
47109;Laerm;32856;51.422;6.794;2023-04-15T03:31:22;53.94;49.78;63.01;;
47109;Laerm;32856;51.422;6.794;2023-04-15T03:33:49;56.37;49.25;69.38;;
47109;Laerm;32856;51.422;6.794;2023-04-15T03:36:17;54.94;50.65;64.26;;
47109;Laerm;32856;51.422;6.794;2023-04-15T03:38:44;56.03;51.30;62.81;;
47109;Laerm;32856;51.422;6.794;2023-04-15T03:41:11;56.54;51.21;69.52;;
47109;Laerm;32856;51.422;6.794;2023-04-15T03:43:40;58.64;50.80;72.42;;
47109;Laerm;32856;51.422;6.794;2023-04-15T03:46:08;57.47;49.15;72.36;;
47109;Laerm;32856;51.422;6.794;2023-04-15T03:48:35;59.35;51.72;74.08;;
47109;Laerm;32856;51.422;6.794;2023-04-15T03:51:02;56.85;50.56;73.00;;
47109;Laerm;32856;51.422;6.794;2023-04-15T03:53:30;54.59;50.25;61.51;;
47109;Laerm;32856;51.422;6.794;2023-04-15T03:55:57;55.55;50.91;70.22;;
47109;Laerm;32856;51.422;6.794;2023-04-15T03:58:24;58.47;50.61;72.83;;
47109;Laerm;32856;51.422;6.794;2023-04-15T04:00:53;55.94;51.37;73.55;;
47109;Laerm;32856;51.422;6.794;2023-04-15T04:03:20;56.49;50.10;70.45;;
47109;Laerm;32856;51.422;6.794;2023-04-15T04:05:48;59.01;50.79;73.69;;
47109;Laerm;32856;51.422;6.794;2023-04-15T04:08:16;56.58;51.64;66.98;;
47109;Laerm;32856;51.422;6.794;2023-04-15T04:10:44;55.93;52.17;63.70;;
47109;Laerm;32856;51.422;6.794;2023-04-15T04:13:11;62.19;51.05;79.95;;
47109;Laerm;32856;51.422;6.794;2023-04-15T04:15:39;59.61;52.91;74.50;;
47109;Laerm;32856;51.422;6.794;2023-04-15T04:18:07;57.95;50.02;74.82;;
47109;Laerm;32856;51.422;6.794;2023-04-15T04:20:35;60.63;51.21;76.56;;
47109;Laerm;32856;51.422;6.794;2023-04-15T04:23:02;57.78;49.96;73.68;;
47109;Laerm;32856;51.422;6.794;2023-04-15T04:25:29;54.81;51.10;59.65;;
47109;Laerm;32856;51.422;6.794;2023-04-15T04:27:57;57.04;52.14;70.75;;
47109;Laerm;32856;51.422;6.794;2023-04-15T04:30:24;58.55;52.17;71.36;;
47109;Laerm;32856;51.422;6.794;2023-04-15T04:32:52;57.72;52.90;73.21;;
47109;Laerm;32856;51.422;6.794;2023-04-15T04:35:20;56.29;51.66;73.29;;
47109;Laerm;32856;51.422;6.794;2023-04-15T04:37:48;58.34;51.86;75.20;;
47109;Laerm;32856;51.422;6.794;2023-04-15T04:40:16;60.02;51.64;77.22;;
47109;Laerm;32856;51.422;6.794;2023-04-15T04:42:43;58.03;50.41;70.62;;
47109;Laerm;32856;51.422;6.794;2023-04-15T04:45:11;61.37;52.70;75.14;;
47109;Laerm;32856;51.422;6.794;2023-04-15T04:47:38;62.07;52.54;73.76;;
47109;Laerm;32856;51.422;6.794;2023-04-15T04:50:06;55.55;51.88;66.70;;
47109;Laerm;32856;51.422;6.794;2023-04-15T04:52:35;59.29;52.33;71.47;;
47109;Laerm;32856;51.422;6.794;2023-04-15T04:55:03;58.86;51.59;73.15;;
47109;Laerm;32856;51.422;6.794;2023-04-15T04:57:30;59.43;51.02;74.25;;
47109;Laerm;32856;51.422;6.794;2023-04-15T04:59:57;58.86;49.77;73.25;;
47109;Laerm;32856;51.422;6.794;2023-04-15T05:02:25;57.08;51.53;71.44;;
47109;Laerm;32856;51.422;6.794;2023-04-15T05:04:53;58.25;51.70;72.92;;
47109;Laerm;32856;51.422;6.794;2023-04-15T05:07:20;57.44;52.52;71.09;;
47109;Laerm;32856;51.422;6.794;2023-04-15T05:09:49;59.67;51.67;77.09;;
47109;Laerm;32856;51.422;6.794;2023-04-15T05:12:16;60.13;51.84;81.10;;
47109;Laerm;32856;51.422;6.794;2023-04-15T05:14:43;57.86;50.95;71.42;;
47109;Laerm;32856;51.422;6.794;2023-04-15T05:17:11;69.32;53.74;83.81;;
47109;Laerm;32856;51.422;6.794;2023-04-15T05:19:39;67.70;52.75;90.59;;
47109;Laerm;32856;51.422;6.794;2023-04-15T05:22:06;56.98;50.81;70.50;;
47109;Laerm;32856;51.422;6.794;2023-04-15T05:24:33;53.83;50.75;63.43;;
47109;Laerm;32856;51.422;6.794;2023-04-15T05:27:02;54.88;51.80;70.78;;
47109;Laerm;32856;51.422;6.794;2023-04-15T05:29:30;58.72;50.85;83.06;;
47109;Laerm;32856;51.422;6.794;2023-04-15T05:31:57;59.77;52.09;73.37;;
47109;Laerm;32856;51.422;6.794;2023-04-15T05:34:24;58.43;50.92;74.11;;
47109;Laerm;32856;51.422;6.794;2023-04-15T05:36:52;60.01;51.81;73.65;;
47109;Laerm;32856;51.422;6.794;2023-04-15T05:39:19;60.10;52.19;75.91;;
47109;Laerm;32856;51.422;6.794;2023-04-15T05:41:47;59.51;52.64;73.07;;
47109;Laerm;32856;51.422;6.794;2023-04-15T05:44:15;63.39;52.44;80.35;;
47109;Laerm;32856;51.422;6.794;2023-04-15T05:46:42;63.24;52.96;77.98;;
47109;Laerm;32856;51.422;6.794;2023-04-15T05:49:10;63.97;52.24;75.65;;
47109;Laerm;32856;51.422;6.794;2023-04-15T05:51:37;59.26;53.05;72.10;;
47109;Laerm;32856;51.422;6.794;2023-04-15T05:54:04;60.55;53.24;75.16;;
47109;Laerm;32856;51.422;6.794;2023-04-15T05:56:32;57.71;51.97;74.49;;
47109;Laerm;32856;51.422;6.794;2023-04-15T05:58:59;60.51;52.88;74.00;;
47109;Laerm;32856;51.422;6.794;2023-04-15T06:01:28;60.94;52.29;75.14;;
47109;Laerm;32856;51.422;6.794;2023-04-15T06:03:55;61.50;53.37;73.74;;
47109;Laerm;32856;51.422;6.794;2023-04-15T06:06:23;59.33;52.77;72.22;;
47109;Laerm;32856;51.422;6.794;2023-04-15T06:08:50;58.11;51.21;69.81;;
47109;Laerm;32856;51.422;6.794;2023-04-15T06:11:18;60.69;52.31;74.69;;
47109;Laerm;32856;51.422;6.794;2023-04-15T06:13:46;60.76;53.31;75.12;;
47109;Laerm;32856;51.422;6.794;2023-04-15T06:16:13;61.04;53.11;71.36;;
47109;Laerm;32856;51.422;6.794;2023-04-15T06:18:42;58.73;52.42;72.11;;
47109;Laerm;32856;51.422;6.794;2023-04-15T06:21:10;62.90;52.54;73.85;;
47109;Laerm;32856;51.422;6.794;2023-04-15T06:23:37;62.11;52.98;79.14;;
47109;Laerm;32856;51.422;6.794;2023-04-15T06:26:06;57.85;53.20;71.06;;
47109;Laerm;32856;51.422;6.794;2023-04-15T06:28:33;60.26;52.12;72.25;;
47109;Laerm;32856;51.422;6.794;2023-04-15T06:31:00;60.58;50.73;75.28;;
47109;Laerm;32856;51.422;6.794;2023-04-15T06:33:28;57.59;51.72;69.14;;
47109;Laerm;32856;51.422;6.794;2023-04-15T06:35:57;60.88;53.04;72.89;;
47109;Laerm;32856;51.422;6.794;2023-04-15T06:38:24;60.65;51.86;74.58;;
47109;Laerm;32856;51.422;6.794;2023-04-15T06:40:51;65.41;51.34;78.37;;
47109;Laerm;32856;51.422;6.794;2023-04-15T06:43:19;62.06;53.05;72.75;;
47109;Laerm;32856;51.422;6.794;2023-04-15T06:45:46;60.32;52.34;71.32;;
47109;Laerm;32856;51.422;6.794;2023-04-15T06:48:14;61.10;51.47;75.79;;
47109;Laerm;32856;51.422;6.794;2023-04-15T06:50:41;58.99;49.78;71.69;;
47109;Laerm;32856;51.422;6.794;2023-04-15T06:53:10;61.08;51.93;71.30;;
47109;Laerm;32856;51.422;6.794;2023-04-15T06:55:37;61.84;52.45;72.86;;
47109;Laerm;32856;51.422;6.794;2023-04-15T06:58:05;61.33;52.19;74.97;;
47109;Laerm;32856;51.422;6.794;2023-04-15T07:00:32;62.19;53.07;74.66;;
47109;Laerm;32856;51.422;6.794;2023-04-15T07:03:00;58.99;52.62;69.82;;
47109;Laerm;32856;51.422;6.794;2023-04-15T07:05:28;58.50;52.02;72.09;;
47109;Laerm;32856;51.422;6.794;2023-04-15T07:07:57;68.03;53.16;79.74;;
47109;Laerm;32856;51.422;6.794;2023-04-15T07:10:26;59.57;52.17;72.37;;
47109;Laerm;32856;51.422;6.794;2023-04-15T07:12:54;61.02;50.95;72.94;;
47109;Laerm;32856;51.422;6.794;2023-04-15T07:15:21;64.57;52.72;77.09;;
47109;Laerm;32856;51.422;6.794;2023-04-15T07:17:48;59.80;51.43;71.94;;
47109;Laerm;32856;51.422;6.794;2023-04-15T07:20:16;60.70;51.32;73.88;;
47109;Laerm;32856;51.422;6.794;2023-04-15T07:22:43;60.12;52.35;72.22;;
47109;Laerm;32856;51.422;6.794;2023-04-15T07:25:10;60.07;52.02;74.66;;
47109;Laerm;32856;51.422;6.794;2023-04-15T07:27:39;63.10;52.53;74.26;;
47109;Laerm;32856;51.422;6.794;2023-04-15T07:30:07;56.74;51.74;69.13;;
47109;Laerm;32856;51.422;6.794;2023-04-15T07:32:34;64.74;52.08;78.96;;
47109;Laerm;32856;51.422;6.794;2023-04-15T07:35:02;61.07;53.01;75.99;;
47109;Laerm;32856;51.422;6.794;2023-04-15T07:37:29;61.79;52.74;74.40;;
47109;Laerm;32856;51.422;6.794;2023-04-15T07:39:57;61.31;52.00;72.01;;
47109;Laerm;32856;51.422;6.794;2023-04-15T07:42:24;63.42;51.17;75.53;;
47109;Laerm;32856;51.422;6.794;2023-04-15T07:44:53;63.56;52.26;76.17;;
47109;Laerm;32856;51.422;6.794;2023-04-15T07:47:21;64.42;52.72;75.75;;
47109;Laerm;32856;51.422;6.794;2023-04-15T07:49:48;62.18;53.03;75.05;;
47109;Laerm;32856;51.422;6.794;2023-04-15T07:52:16;61.31;53.52;72.86;;
47109;Laerm;32856;51.422;6.794;2023-04-15T07:54:43;61.77;54.43;72.67;;
47109;Laerm;32856;51.422;6.794;2023-04-15T07:57:11;62.44;52.11;72.78;;
47109;Laerm;32856;51.422;6.794;2023-04-15T07:59:38;61.13;52.00;76.46;;
47109;Laerm;32856;51.422;6.794;2023-04-15T08:02:08;62.96;54.36;74.81;;
47109;Laerm;32856;51.422;6.794;2023-04-15T08:04:35;62.89;50.56;74.36;;
47109;Laerm;32856;51.422;6.794;2023-04-15T08:07:03;59.43;50.96;70.67;;
47109;Laerm;32856;51.422;6.794;2023-04-15T08:09:31;58.55;50.96;73.56;;
47109;Laerm;32856;51.422;6.794;2023-04-15T08:11:58;63.86;50.88;75.94;;
47109;Laerm;32856;51.422;6.794;2023-04-15T08:14:26;61.80;51.30;73.36;;
47109;Laerm;32856;51.422;6.794;2023-04-15T08:16:53;62.68;51.07;74.18;;
47109;Laerm;32856;51.422;6.794;2023-04-15T08:19:22;59.84;51.34;72.69;;
47109;Laerm;32856;51.422;6.794;2023-04-15T08:21:49;63.09;53.12;73.41;;
47109;Laerm;32856;51.422;6.794;2023-04-15T08:24:17;63.17;53.39;72.20;;
47109;Laerm;32856;51.422;6.794;2023-04-15T08:26:44;61.11;51.28;71.27;;
47109;Laerm;32856;51.422;6.794;2023-04-15T08:29:12;63.67;52.33;72.49;;
47109;Laerm;32856;51.422;6.794;2023-04-15T08:31:39;61.70;52.51;72.67;;
47109;Laerm;32856;51.422;6.794;2023-04-15T08:34:07;58.54;51.16;72.90;;
47109;Laerm;32856;51.422;6.794;2023-04-15T08:36:35;63.35;52.50;74.95;;
47109;Laerm;32856;51.422;6.794;2023-04-15T08:39:02;62.24;52.02;72.90;;
47109;Laerm;32856;51.422;6.794;2023-04-15T08:41:33;58.01;52.56;69.52;;
47109;Laerm;32856;51.422;6.794;2023-04-15T08:44:04;63.62;54.38;78.70;;
47109;Laerm;32856;51.422;6.794;2023-04-15T08:46:32;62.45;53.28;73.89;;
47109;Laerm;32856;51.422;6.794;2023-04-15T08:49:01;63.73;53.63;72.92;;
47109;Laerm;32856;51.422;6.794;2023-04-15T08:51:30;61.29;52.98;72.22;;
47109;Laerm;32856;51.422;6.794;2023-04-15T08:53:59;61.55;52.92;72.12;;
47109;Laerm;32856;51.422;6.794;2023-04-15T08:56:26;63.11;52.67;75.53;;
47109;Laerm;32856;51.422;6.794;2023-04-15T08:58:54;65.86;53.64;80.32;;
47109;Laerm;32856;51.422;6.794;2023-04-15T09:01:21;60.68;52.74;71.29;;
47109;Laerm;32856;51.422;6.794;2023-04-15T09:03:49;64.12;52.54;75.61;;
47109;Laerm;32856;51.422;6.794;2023-04-15T09:06:16;65.32;53.68;75.33;;
47109;Laerm;32856;51.422;6.794;2023-04-15T09:08:44;62.00;51.86;71.68;;
47109;Laerm;32856;51.422;6.794;2023-04-15T09:11:12;60.42;51.30;71.93;;
47109;Laerm;32856;51.422;6.794;2023-04-15T09:13:39;64.79;51.91;76.55;;
47109;Laerm;32856;51.422;6.794;2023-04-15T09:16:07;63.53;51.83;73.80;;
47109;Laerm;32856;51.422;6.794;2023-04-15T09:18:35;65.16;51.08;75.51;;
47109;Laerm;32856;51.422;6.794;2023-04-15T09:21:03;63.47;50.55;75.74;;
47109;Laerm;32856;51.422;6.794;2023-04-15T09:23:30;65.47;51.03;85.01;;
47109;Laerm;32856;51.422;6.794;2023-04-15T09:25:58;63.29;51.84;73.91;;
47109;Laerm;32856;51.422;6.794;2023-04-15T09:28:26;62.28;51.83;72.86;;
47109;Laerm;32856;51.422;6.794;2023-04-15T09:30:54;61.30;50.29;73.66;;
47109;Laerm;32856;51.422;6.794;2023-04-15T09:33:22;60.14;51.13;71.73;;
47109;Laerm;32856;51.422;6.794;2023-04-15T09:35:56;62.08;49.93;71.36;;
47109;Laerm;32856;51.422;6.794;2023-04-15T09:38:24;61.85;51.53;72.78;;
47109;Laerm;32856;51.422;6.794;2023-04-15T09:40:51;59.78;49.35;72.26;;
47109;Laerm;32856;51.422;6.794;2023-04-15T09:43:18;62.52;51.87;72.78;;
47109;Laerm;32856;51.422;6.794;2023-04-15T09:45:48;64.39;55.61;72.88;;
47109;Laerm;32856;51.422;6.794;2023-04-15T09:48:17;64.65;52.72;76.82;;
47109;Laerm;32856;51.422;6.794;2023-04-15T09:50:45;63.60;53.51;74.80;;
47109;Laerm;32856;51.422;6.794;2023-04-15T09:53:15;63.90;56.85;74.46;;
47109;Laerm;32856;51.422;6.794;2023-04-15T09:55:43;64.43;56.72;80.01;;
47109;Laerm;32856;51.422;6.794;2023-04-15T09:58:16;63.18;55.50;76.90;;
47109;Laerm;32856;51.422;6.794;2023-04-15T10:00:43;63.07;56.71;71.86;;
47109;Laerm;32856;51.422;6.794;2023-04-15T10:03:14;63.66;55.56;74.25;;
47109;Laerm;32856;51.422;6.794;2023-04-15T10:05:43;62.21;55.56;72.54;;
47109;Laerm;32856;51.422;6.794;2023-04-15T10:08:10;63.45;56.50;75.89;;
47109;Laerm;32856;51.422;6.794;2023-04-15T10:10:38;63.88;53.01;74.43;;
47109;Laerm;32856;51.422;6.794;2023-04-15T10:13:06;63.11;52.87;78.61;;
47109;Laerm;32856;51.422;6.794;2023-04-15T10:15:34;63.65;54.78;74.22;;
47109;Laerm;32856;51.422;6.794;2023-04-15T10:18:02;65.22;55.30;76.56;;
47109;Laerm;32856;51.422;6.794;2023-04-15T10:20:32;62.07;50.44;73.96;;
47109;Laerm;32856;51.422;6.794;2023-04-15T10:23:01;63.94;55.39;72.95;;
47109;Laerm;32856;51.422;6.794;2023-04-15T10:25:29;64.18;51.07;73.84;;
47109;Laerm;32856;51.422;6.794;2023-04-15T10:27:56;63.73;51.09;73.88;;
47109;Laerm;32856;51.422;6.794;2023-04-15T10:30:24;63.10;50.77;72.83;;
47109;Laerm;32856;51.422;6.794;2023-04-15T10:32:51;62.62;51.21;74.96;;
47109;Laerm;32856;51.422;6.794;2023-04-15T10:35:19;62.09;50.24;72.22;;
47109;Laerm;32856;51.422;6.794;2023-04-15T10:37:49;62.08;51.40;76.24;;
47109;Laerm;32856;51.422;6.794;2023-04-15T10:40:23;64.61;52.50;73.95;;
47109;Laerm;32856;51.422;6.794;2023-04-15T10:42:51;65.98;53.60;78.12;;
47109;Laerm;32856;51.422;6.794;2023-04-15T10:45:18;66.64;61.08;81.84;;
47109;Laerm;32856;51.422;6.794;2023-04-15T10:47:45;64.19;60.33;72.19;;
47109;Laerm;32856;51.422;6.794;2023-04-15T10:50:17;64.37;53.48;73.83;;
47109;Laerm;32856;51.422;6.794;2023-04-15T10:52:45;66.50;59.96;76.94;;
47109;Laerm;32856;51.422;6.794;2023-04-15T10:55:14;67.31;52.08;80.42;;
47109;Laerm;32856;51.422;6.794;2023-04-15T10:57:42;65.18;59.13;74.12;;
47109;Laerm;32856;51.422;6.794;2023-04-15T11:00:11;66.88;56.76;76.34;;
47109;Laerm;32856;51.422;6.794;2023-04-15T11:02:39;65.66;56.52;73.88;;
47109;Laerm;32856;51.422;6.794;2023-04-15T11:05:07;66.36;52.46;80.59;;
47109;Laerm;32856;51.422;6.794;2023-04-15T11:07:35;65.27;54.72;77.97;;
47109;Laerm;32856;51.422;6.794;2023-04-15T11:10:03;62.35;51.31;74.59;;
47109;Laerm;32856;51.422;6.794;2023-04-15T11:12:34;63.56;51.50;71.68;;
47109;Laerm;32856;51.422;6.794;2023-04-15T11:17:47;65.46;52.06;75.37;;
47109;Laerm;32856;51.422;6.794;2023-04-15T11:20:14;66.49;59.33;78.06;;
47109;Laerm;32856;51.422;6.794;2023-04-15T11:22:46;66.32;53.76;74.67;;
47109;Laerm;32856;51.422;6.794;2023-04-15T11:25:20;65.51;58.83;76.24;;
47109;Laerm;32856;51.422;6.794;2023-04-15T11:27:49;62.89;51.49;73.36;;
47109;Laerm;32856;51.422;6.794;2023-04-15T11:30:17;62.88;50.98;73.18;;
47109;Laerm;32856;51.422;6.794;2023-04-15T11:32:46;63.41;50.68;78.43;;
47109;Laerm;32856;51.422;6.794;2023-04-15T11:35:13;64.23;50.68;75.27;;
47109;Laerm;32856;51.422;6.794;2023-04-15T11:37:40;64.60;51.52;75.87;;
47109;Laerm;32856;51.422;6.794;2023-04-15T11:40:08;62.59;51.32;72.23;;
47109;Laerm;32856;51.422;6.794;2023-04-15T11:42:36;62.53;51.50;71.36;;
47109;Laerm;32856;51.422;6.794;2023-04-15T11:45:15;63.96;50.13;77.53;;
47109;Laerm;32856;51.422;6.794;2023-04-15T11:47:43;64.53;49.25;78.78;;
47109;Laerm;32856;51.422;6.794;2023-04-15T11:50:13;63.41;51.03;81.53;;
47109;Laerm;32856;51.422;6.794;2023-04-15T11:52:51;62.95;52.19;75.61;;
47109;Laerm;32856;51.422;6.794;2023-04-15T11:55:18;64.81;53.24;76.97;;
47109;Laerm;32856;51.422;6.794;2023-04-15T11:57:45;62.74;52.59;72.70;;
47109;Laerm;32856;51.422;6.794;2023-04-15T12:00:13;64.14;52.11;73.57;;
47109;Laerm;32856;51.422;6.794;2023-04-15T12:02:43;63.13;52.70;77.25;;
47109;Laerm;32856;51.422;6.794;2023-04-15T12:05:11;65.41;49.81;89.26;;
47109;Laerm;32856;51.422;6.794;2023-04-15T12:10:32;67.63;52.48;90.71;;
47109;Laerm;32856;51.422;6.794;2023-04-15T12:13:00;66.81;58.93;78.04;;
47109;Laerm;32856;51.422;6.794;2023-04-15T12:15:27;65.59;59.52;80.43;;
47109;Laerm;32856;51.422;6.794;2023-04-15T12:17:56;64.97;59.43;79.89;;
47109;Laerm;32856;51.422;6.794;2023-04-15T12:20:24;66.15;59.68;76.37;;
47109;Laerm;32856;51.422;6.794;2023-04-15T12:22:51;66.14;58.38;83.80;;
47109;Laerm;32856;51.422;6.794;2023-04-15T12:25:18;65.50;54.05;76.17;;
47109;Laerm;32856;51.422;6.794;2023-04-15T12:27:49;68.16;54.41;83.19;;
47109;Laerm;32856;51.422;6.794;2023-04-15T12:30:17;67.14;61.94;78.43;;
47109;Laerm;32856;51.422;6.794;2023-04-15T12:32:44;64.98;54.00;76.54;;
47109;Laerm;32856;51.422;6.794;2023-04-15T12:35:13;61.89;51.42;72.42;;
47109;Laerm;32856;51.422;6.794;2023-04-15T12:37:40;63.49;51.72;77.40;;
47109;Laerm;32856;51.422;6.794;2023-04-15T12:40:08;64.28;52.41;80.82;;
47109;Laerm;32856;51.422;6.794;2023-04-15T12:42:36;65.11;52.95;76.03;;
47109;Laerm;32856;51.422;6.794;2023-04-15T12:45:04;61.13;52.15;73.58;;
47109;Laerm;32856;51.422;6.794;2023-04-15T12:47:31;65.35;51.84;77.95;;
47109;Laerm;32856;51.422;6.794;2023-04-15T12:49:59;62.94;51.91;75.13;;
47109;Laerm;32856;51.422;6.794;2023-04-15T12:52:27;64.38;52.47;75.85;;
47109;Laerm;32856;51.422;6.794;2023-04-15T12:54:55;62.76;52.25;75.74;;
47109;Laerm;32856;51.422;6.794;2023-04-15T12:57:22;64.89;54.70;73.55;;
47109;Laerm;32856;51.422;6.794;2023-04-15T12:59:50;63.01;53.06;74.24;;
47109;Laerm;32856;51.422;6.794;2023-04-15T13:02:17;62.50;52.54;73.99;;
47109;Laerm;32856;51.422;6.794;2023-04-15T13:04:46;65.75;52.13;80.09;;
47109;Laerm;32856;51.422;6.794;2023-04-15T13:07:13;63.93;51.75;75.69;;
47109;Laerm;32856;51.422;6.794;2023-04-15T13:09:42;65.12;51.49;83.07;;
47109;Laerm;32856;51.422;6.794;2023-04-15T13:12:10;63.14;51.90;74.92;;
47109;Laerm;32856;51.422;6.794;2023-04-15T13:14:38;64.91;51.67;79.44;;
47109;Laerm;32856;51.422;6.794;2023-04-15T13:17:06;64.76;52.33;85.62;;
47109;Laerm;32856;51.422;6.794;2023-04-15T13:19:35;64.16;50.77;79.61;;
47109;Laerm;32856;51.422;6.794;2023-04-15T13:22:02;63.80;51.37;76.26;;
47109;Laerm;32856;51.422;6.794;2023-04-15T13:24:30;62.21;50.23;78.44;;
47109;Laerm;32856;51.422;6.794;2023-04-15T13:26:58;60.89;50.90;72.18;;
47109;Laerm;32856;51.422;6.794;2023-04-15T13:29:25;61.92;50.29;74.87;;
47109;Laerm;32856;51.422;6.794;2023-04-15T13:31:53;62.56;50.53;72.24;;
47109;Laerm;32856;51.422;6.794;2023-04-15T13:34:20;62.73;50.86;76.80;;
47109;Laerm;32856;51.422;6.794;2023-04-15T13:36:48;59.51;50.48;72.04;;
47109;Laerm;32856;51.422;6.794;2023-04-15T13:39:15;64.45;50.42;74.47;;
47109;Laerm;32856;51.422;6.794;2023-04-15T13:41:42;61.09;50.92;71.82;;
47109;Laerm;32856;51.422;6.794;2023-04-15T13:44:11;64.35;53.64;77.94;;
47109;Laerm;32856;51.422;6.794;2023-04-15T13:46:38;62.43;50.39;73.27;;
47109;Laerm;32856;51.422;6.794;2023-04-15T13:49:07;65.86;50.02;79.70;;
47109;Laerm;32856;51.422;6.794;2023-04-15T13:51:34;61.33;49.41;71.77;;
47109;Laerm;32856;51.422;6.794;2023-04-15T13:54:02;68.56;51.43;86.79;;